Time;durP1;ratioP1;P1;durP2;ratioP2;P2;SDS_P1;SDS_P2;PMS_P1;PMS_P2;Temp;Humidity;BMP_temperature;BMP_pressure;BME280_temperature;BME280_humidity;BME280_pressure;Samples;Min_cycle;Max_cycle;Signal;HPM_P1;HPM_P2
2022/01/12 00:00:05;;;;;;;5.07;2.85;;;;;;;;;;7381109;19;20018;-69
2022/01/12 00:02:30;;;;;;;5.38;2.95;;;;;;;;;;7388351;19;20021;-70
2022/01/12 00:04:57;;;;;;;5.68;3.15;;;;;;;;;;7389128;19;20358;-70
2022/01/12 00:07:23;;;;;;;7.28;3.63;;;;;;;;;;7382719;19;20021;-70
2022/01/12 00:09:48;;;;;;;5.82;3.03;;;;;;;;;;7383965;19;20006;-69
2022/01/12 00:12:13;;;;;;;6.20;3.55;;;;;;;;;;7385080;19;20465;-69
2022/01/12 00:14:38;;;;;;;8.07;3.60;;;;;;;;;;7385464;19;20029;-69
2022/01/12 00:17:04;;;;;;;7.03;3.88;;;;;;;;;;7387341;19;20310;-69
2022/01/12 00:19:30;;;;;;;5.28;2.88;;;;;;;;;;7383092;19;20494;-69
2022/01/12 00:21:56;;;;;;;6.45;3.85;;;;;;;;;;7388301;19;20134;-70
2022/01/12 00:24:25;;;;;;;5.60;3.17;;;;;;;;;;7384110;19;20468;-69
2022/01/12 00:35:02;;;;;;;6.53;3.15;;;;;;;;;;7382003;19;20213;-70
2022/01/12 00:37:29;;;;;;;6.68;2.63;;;;;;;;;;7386819;19;20010;-69
2022/01/12 00:39:58;;;;;;;4.97;2.72;;;;;;;;;;7382525;19;20030;-70
2022/01/12 00:42:27;;;;;;;5.53;3.50;;;;;;;;;;7381265;19;20011;-69
2022/01/12 00:44:53;;;;;;;5.95;3.00;;;;;;;;;;7382820;19;20017;-69
2022/01/12 00:47:18;;;;;;;5.78;3.22;;;;;;;;;;7381827;19;20018;-69
2022/01/12 00:49:44;;;;;;;5.28;2.72;;;;;;;;;;7381718;19;20002;-70
2022/01/12 00:52:09;;;;;;;9.55;3.45;;;;;;;;;;7385468;19;20337;-68
2022/01/12 00:54:35;;;;;;;4.53;2.67;;;;;;;;;;7385281;19;20028;-69
2022/01/12 00:57:00;;;;;;;5.18;2.53;;;;;;;;;;7386536;19;20563;-69
2022/01/12 00:59:25;;;;;;;5.93;2.75;;;;;;;;;;7381931;19;20003;-70
2022/01/12 01:01:51;;;;;;;5.10;2.83;;;;;;;;;;7382189;19;20011;-69
2022/01/12 01:04:16;;;;;;;5.60;2.90;;;;;;;;;;7381662;19;20006;-70
2022/01/12 01:06:42;;;;;;;7.20;3.22;;;;;;;;;;7383559;19;20121;-69
2022/01/12 01:09:07;;;;;;;6.80;3.17;;;;;;;;;;7381245;19;20509;-70
2022/01/12 01:11:33;;;;;;;5.82;2.70;;;;;;;;;;7383639;19;20010;-69
2022/01/12 01:14:01;;;;;;;8.40;2.80;;;;;;;;;;7385305;19;20010;-69
2022/01/12 01:16:48;;;;;;;4.88;2.47;;;;;;;;;;7384839;19;20018;-70
2022/01/12 01:27:27;;;;;;;5.03;2.67;;;;;;;;;;7383508;19;20035;-70
2022/01/12 01:29:54;;;;;;;5.93;3.08;;;;;;;;;;7378966;19;20359;-69
2022/01/12 01:32:20;;;;;;;4.28;2.58;;;;;;;;;;7383815;19;20481;-69
2022/01/12 01:34:47;;;;;;;6.78;3.10;;;;;;;;;;7383972;19;20010;-69
2022/01/12 01:37:13;;;;;;;7.35;2.75;;;;;;;;;;7383136;19;20018;-70
2022/01/12 01:39:38;;;;;;;6.70;3.13;;;;;;;;;;7379993;19;20021;-70
2022/01/12 01:42:13;;;;;;;5.07;2.85;;;;;;;;;;7383895;19;20010;-69
2022/01/12 01:55:17;;;;;;;6.45;3.00;;;;;;;;;;7385457;19;20017;-70
2022/01/12 01:57:43;;;;;;;6.07;3.38;;;;;;;;;;7380937;19;20074;-69
2022/01/12 02:00:13;;;;;;;5.78;2.63;;;;;;;;;;7380070;19;20018;-70
2022/01/12 02:02:39;;;;;;;7.05;3.28;;;;;;;;;;7381987;19;20090;-70
2022/01/12 02:05:05;;;;;;;7.85;3.22;;;;;;;;;;7382372;19;20006;-70
2022/01/12 02:07:33;;;;;;;8.40;3.63;;;;;;;;;;7378719;19;20048;-70
2022/01/12 02:09:58;;;;;;;7.45;3.55;;;;;;;;;;7380735;19;20010;-70
2022/01/12 02:12:27;;;;;;;5.25;2.83;;;;;;;;;;7381312;19;20087;-70
2022/01/12 02:14:53;;;;;;;6.65;3.78;;;;;;;;;;7381334;19;20014;-70
2022/01/12 02:17:23;;;;;;;6.13;3.22;;;;;;;;;;7379861;19;20946;-70
2022/01/12 02:36:32;;;;;;;6.35;3.50;;;;;;;;;;7382156;19;20103;-69
2022/01/12 02:41:43;;;;;;;7.05;3.58;;;;;;;;;;7382010;19;20021;-69
2022/01/12 02:54:49;;;;;;;5.22;2.70;;;;;;;;;;7380686;19;20342;-70
2022/01/12 02:57:14;;;;;;;7.53;3.15;;;;;;;;;;7379019;19;20062;-69
2022/01/12 02:59:58;;;;;;;5.75;3.08;;;;;;;;;;7375009;19;20459;-69
2022/01/12 03:02:37;;;;;;;4.60;2.42;;;;;;;;;;7380944;19;20412;-70
2022/01/12 03:07:46;;;;;;;7.30;3.88;;;;;;;;;;7381297;19;20138;-69
2022/01/12 03:10:13;;;;;;;6.95;3.63;;;;;;;;;;7378872;19;20130;-69
2022/01/12 03:12:41;;;;;;;6.93;3.72;;;;;;;;;;7379838;19;20489;-70
2022/01/12 03:15:07;;;;;;;7.85;4.13;;;;;;;;;;7381272;19;20042;-69
2022/01/12 03:17:32;;;;;;;8.20;4.28;;;;;;;;;;7379839;19;20015;-69
2022/01/12 03:19:57;;;;;;;8.50;4.00;;;;;;;;;;7379543;19;20007;-69
2022/01/12 03:22:22;;;;;;;8.15;4.35;;;;;;;;;;7376260;19;20010;-69
2022/01/12 03:24:48;;;;;;;6.57;3.85;;;;;;;;;;7379490;19;20014;-69
2022/01/12 03:27:15;;;;;;;7.43;3.92;;;;;;;;;;7379736;19;20511;-69
2022/01/12 03:29:42;;;;;;;7.10;4.13;;;;;;;;;;7375551;19;20267;-69
2022/01/12 03:32:11;;;;;;;5.50;3.53;;;;;;;;;;7376821;19;20497;-69
2022/01/12 03:34:37;;;;;;;9.45;3.80;;;;;;;;;;7378223;19;20014;-69
2022/01/12 03:37:28;;;;;;;7.50;3.72;;;;;;;;;;7388056;19;20050;-69
2022/01/12 03:39:53;;;;;;;6.28;3.05;;;;;;;;;;7384245;19;20015;-70
2022/01/12 03:42:19;;;;;;;7.53;3.83;;;;;;;;;;7387474;19;20302;-70
2022/01/12 03:44:44;;;;;;;7.00;3.33;;;;;;;;;;7387024;19;20433;-70
2022/01/12 03:47:10;;;;;;;7.22;3.45;;;;;;;;;;7388419;19;20015;-69
2022/01/12 03:49:35;;;;;;;6.25;3.03;;;;;;;;;;7385946;19;20032;-69
2022/01/12 03:52:00;;;;;;;6.25;2.97;;;;;;;;;;7385649;19;20481;-70
2022/01/12 03:54:25;;;;;;;7.18;3.45;;;;;;;;;;7387286;19;20006;-70
2022/01/12 03:56:51;;;;;;;6.35;3.17;;;;;;;;;;7386030;19;20015;-70
2022/01/12 03:59:16;;;;;;;5.88;2.70;;;;;;;;;;7384986;19;20015;-70
2022/01/12 04:01:41;;;;;;;5.75;3.10;;;;;;;;;;7379734;19;20402;-69
2022/01/12 04:04:11;;;;;;;5.63;3.05;;;;;;;;;;7385788;19;20014;-69
2022/01/12 04:09:20;;;;;;;5.68;2.95;;;;;;;;;;7384429;19;20042;-69
2022/01/12 04:11:46;;;;;;;6.93;2.95;;;;;;;;;;7382061;19;20011;-69
2022/01/12 04:14:12;;;;;;;7.20;3.17;;;;;;;;;;7385288;19;20006;-72
2022/01/12 04:16:38;;;;;;;6.82;2.72;;;;;;;;;;7385476;19;20010;-70
2022/01/12 04:19:04;;;;;;;8.35;3.78;;;;;;;;;;7383831;19;20539;-69
2022/01/12 04:21:33;;;;;;;5.55;2.85;;;;;;;;;;7385432;19;20452;-69
2022/01/12 04:23:59;;;;;;;6.55;2.92;;;;;;;;;;7386607;19;20014;-69
2022/01/12 04:26:27;;;;;;;6.32;2.85;;;;;;;;;;7383204;19;21170;-69
2022/01/12 04:28:53;;;;;;;8.55;3.28;;;;;;;;;;7383850;19;20018;-69
2022/01/12 04:31:19;;;;;;;6.93;2.92;;;;;;;;;;7385075;19;20017;-69
2022/01/12 04:33:46;;;;;;;6.32;2.67;;;;;;;;;;7386056;19;20018;-69
2022/01/12 04:36:12;;;;;;;6.40;2.95;;;;;;;;;;7383452;19;20010;-69
2022/01/12 04:38:40;;;;;;;6.80;2.88;;;;;;;;;;7384815;19;20385;-69
2022/01/12 04:41:09;;;;;;;7.72;3.63;;;;;;;;;;7384984;19;20014;-69
2022/01/12 04:43:36;;;;;;;8.13;3.40;;;;;;;;;;7385932;19;20048;-70
2022/01/12 04:48:37;;;;;;;6.95;3.00;;;;;;;;;;7382680;19;20087;-69
2022/01/12 04:51:03;;;;;;;7.63;3.13;;;;;;;;;;7383674;19;20465;-69
2022/01/12 04:53:30;;;;;;;8.32;3.25;;;;;;;;;;7385201;19;20011;-70
2022/01/12 04:55:56;;;;;;;9.18;3.42;;;;;;;;;;7384765;19;20030;-69
2022/01/12 04:58:21;;;;;;;7.75;3.20;;;;;;;;;;7375196;19;20500;-69
2022/01/12 05:00:48;;;;;;;7.30;3.03;;;;;;;;;;7383217;19;20421;-69
2022/01/12 05:13:56;;;;;;;7.88;2.97;;;;;;;;;;7383857;19;20039;-70
2022/01/12 05:16:22;;;;;;;6.90;2.88;;;;;;;;;;7382697;19;20027;-69
2022/01/12 05:18:49;;;;;;;9.02;3.60;;;;;;;;;;7380768;19;20014;-69
2022/01/12 05:21:16;;;;;;;9.10;3.85;;;;;;;;;;7381133;19;20015;-69
2022/01/12 05:23:42;;;;;;;8.32;3.28;;;;;;;;;;7381580;19;20025;-69
2022/01/12 05:26:08;;;;;;;9.70;3.92;;;;;;;;;;7382116;19;20030;-69
2022/01/12 05:28:34;;;;;;;9.82;3.90;;;;;;;;;;7375630;19;20468;-69
2022/01/12 05:31:01;;;;;;;8.25;3.80;;;;;;;;;;7376023;19;20016;-69
2022/01/12 05:33:27;;;;;;;7.40;3.15;;;;;;;;;;7374117;19;20030;-70
2022/01/12 05:35:55;;;;;;;5.70;2.88;;;;;;;;;;7381716;19;20745;-70
2022/01/12 05:38:21;;;;;;;5.72;2.83;;;;;;;;;;7378842;19;20032;-70
2022/01/12 05:40:49;;;;;;;9.68;4.00;;;;;;;;;;7380358;19;20022;-69
2022/01/12 05:43:20;;;;;;;7.03;3.50;;;;;;;;;;7381471;19;20361;-69
2022/01/12 05:45:45;;;;;;;10.32;3.90;;;;;;;;;;7381341;19;20011;-69
2022/01/12 05:50:38;;;;;;;6.85;3.58;;;;;;;;;;7382588;19;20014;-69
2022/01/12 05:53:03;;;;;;;7.35;3.58;;;;;;;;;;7380098;19;20014;-69
2022/01/12 05:55:29;;;;;;;7.63;3.28;;;;;;;;;;7379435;19;20464;-69
2022/01/12 05:57:54;;;;;;;10.20;4.55;;;;;;;;;;7376516;19;20448;-69
2022/01/12 06:00:21;;;;;;;8.32;4.05;;;;;;;;;;7374830;19;20010;-69
2022/01/12 06:02:47;;;;;;;10.35;4.00;;;;;;;;;;7376530;19;20006;-68
2022/01/12 06:05:18;;;;;;;9.80;4.60;;;;;;;;;;7369001;19;20034;-68
2022/01/12 06:07:44;;;;;;;10.18;3.85;;;;;;;;;;7370198;19;20206;-71
2022/01/12 06:10:09;;;;;;;9.07;4.40;;;;;;;;;;7371477;19;20085;-71
2022/01/12 06:12:35;;;;;;;9.65;4.05;;;;;;;;;;7370603;19;20042;-71
2022/01/12 06:15:00;;;;;;;8.13;4.03;;;;;;;;;;7369097;19;20933;-70
2022/01/12 06:17:25;;;;;;;11.32;4.45;;;;;;;;;;7375478;19;20006;-72
2022/01/12 06:19:53;;;;;;;8.32;4.18;;;;;;;;;;7376666;19;20017;-71
2022/01/12 06:22:19;;;;;;;6.75;3.35;;;;;;;;;;7378371;19;20473;-73
2022/01/12 06:24:44;;;;;;;9.85;4.78;;;;;;;;;;7378325;19;20022;-72
2022/01/12 06:27:14;;;;;;;7.95;4.88;;;;;;;;;;7371250;19;20006;-72
2022/01/12 06:32:08;;;;;;;7.97;4.40;;;;;;;;;;7375236;19;20388;-74
2022/01/12 06:34:33;;;;;;;8.25;4.50;;;;;;;;;;7379093;19;20045;-75
2022/01/12 06:36:59;;;;;;;10.05;4.93;;;;;;;;;;7376027;19;20583;-74
2022/01/12 06:39:25;;;;;;;10.48;4.68;;;;;;;;;;7373907;19;20507;-74
2022/01/12 06:41:52;;;;;;;7.85;4.07;;;;;;;;;;7371702;19;20002;-74
2022/01/12 06:44:20;;;;;;;6.95;4.22;;;;;;;;;;7375777;19;20020;-72
2022/01/12 06:46:47;;;;;;;8.05;4.30;;;;;;;;;;7375081;19;20074;-74
2022/01/12 06:49:13;;;;;;;6.55;3.75;;;;;;;;;;7370860;19;20103;-73
2022/01/12 06:51:39;;;;;;;11.07;4.28;;;;;;;;;;7373301;19;20014;-73
2022/01/12 06:54:04;;;;;;;9.38;4.75;;;;;;;;;;7376020;19;20070;-72
2022/01/12 06:56:30;;;;;;;8.60;4.80;;;;;;;;;;7375580;19;20010;-71
2022/01/12 06:58:55;;;;;;;8.85;4.35;;;;;;;;;;7375969;19;20777;-72
2022/01/12 07:01:21;;;;;;;9.50;4.68;;;;;;;;;;7378858;19;20006;-73
2022/01/12 07:03:47;;;;;;;9.30;4.63;;;;;;;;;;7374946;19;20393;-73
2022/01/12 07:06:12;;;;;;;8.88;4.80;;;;;;;;;;7375300;19;20002;-72
2022/01/12 07:08:38;;;;;;;11.00;4.95;;;;;;;;;;7371011;19;20082;-71
2022/01/12 07:11:03;;;;;;;11.18;5.22;;;;;;;;;;7383839;19;20014;-72
2022/01/12 07:13:29;;;;;;;10.68;5.55;;;;;;;;;;7381943;19;19998;-73
2022/01/12 07:15:54;;;;;;;9.63;5.30;;;;;;;;;;7382757;19;20014;-73
2022/01/12 07:18:21;;;;;;;11.43;5.50;;;;;;;;;;7379132;19;19999;-72
2022/01/12 07:20:47;;;;;;;11.10;5.28;;;;;;;;;;7379543;19;20577;-72
2022/01/12 07:23:13;;;;;;;12.20;5.63;;;;;;;;;;7374223;19;20451;-74
2022/01/12 07:25:38;;;;;;;11.90;6.50;;;;;;;;;;7377649;19;20014;-73
2022/01/12 07:28:04;;;;;;;10.02;4.65;;;;;;;;;;7376863;19;20006;-73
2022/01/12 07:30:29;;;;;;;13.65;6.28;;;;;;;;;;7383386;19;20015;-71
2022/01/12 07:32:55;;;;;;;13.77;5.80;;;;;;;;;;7374384;19;20014;-74
2022/01/12 07:35:20;;;;;;;13.48;6.55;;;;;;;;;;7380428;19;20078;-73
2022/01/12 07:37:46;;;;;;;12.43;6.47;;;;;;;;;;7371496;19;20019;-74
2022/01/12 07:40:12;;;;;;;13.13;6.10;;;;;;;;;;7374873;19;20067;-73
2022/01/12 07:42:37;;;;;;;12.85;6.50;;;;;;;;;;7379046;19;20111;-74
2022/01/12 07:45:03;;;;;;;12.27;6.13;;;;;;;;;;7383660;19;20371;-73
2022/01/12 07:47:30;;;;;;;10.35;5.15;;;;;;;;;;7380903;19;20022;-73
2022/01/12 07:49:57;;;;;;;10.30;5.07;;;;;;;;;;7382260;19;20011;-73
2022/01/12 07:52:22;;;;;;;10.73;5.47;;;;;;;;;;7382541;19;20382;-73
2022/01/12 07:54:48;;;;;;;10.20;5.45;;;;;;;;;;7380395;19;20034;-71
2022/01/12 07:57:13;;;;;;;10.70;6.13;;;;;;;;;;7382230;19;20002;-72
2022/01/12 07:59:39;;;;;;;11.38;5.88;;;;;;;;;;7380389;19;20014;-73
2022/01/12 08:02:04;;;;;;;18.85;8.43;;;;;;;;;;7382987;19;20012;-74
2022/01/12 08:04:29;;;;;;;15.18;7.50;;;;;;;;;;7381178;19;20412;-74
2022/01/12 08:06:56;;;;;;;10.93;6.10;;;;;;;;;;7375304;19;20277;-73
2022/01/12 08:09:21;;;;;;;11.32;6.22;;;;;;;;;;7376764;19;20085;-74
2022/01/12 08:11:47;;;;;;;13.68;7.18;;;;;;;;;;7377398;19;20442;-74
2022/01/12 08:14:13;;;;;;;14.80;7.00;;;;;;;;;;7379076;19;20394;-74
2022/01/12 08:16:39;;;;;;;14.13;6.65;;;;;;;;;;7381989;19;20070;-73
2022/01/12 08:19:04;;;;;;;12.45;6.28;;;;;;;;;;7377860;19;20040;-73
2022/01/12 08:21:29;;;;;;;14.90;6.40;;;;;;;;;;7380583;19;20013;-72
2022/01/12 08:23:55;;;;;;;12.85;6.07;;;;;;;;;;7381462;19;20007;-73
2022/01/12 08:26:20;;;;;;;12.07;6.10;;;;;;;;;;7381639;19;20607;-72
2022/01/12 08:28:46;;;;;;;16.80;7.47;;;;;;;;;;7378236;19;20002;-73
2022/01/12 08:31:11;;;;;;;16.70;7.95;;;;;;;;;;7382817;19;20009;-73
2022/01/12 08:33:36;;;;;;;14.27;7.63;;;;;;;;;;7381554;19;20035;-73
2022/01/12 08:36:02;;;;;;;11.45;6.15;;;;;;;;;;7383014;19;20022;-74
2022/01/12 08:38:27;;;;;;;15.27;7.25;;;;;;;;;;7378972;19;20033;-73
2022/01/12 08:40:53;;;;;;;15.07;7.13;;;;;;;;;;7381753;19;20111;-75
2022/01/12 08:43:18;;;;;;;10.70;6.55;;;;;;;;;;7381609;19;20025;-75
2022/01/12 08:45:43;;;;;;;12.93;6.57;;;;;;;;;;7382522;19;20073;-73
2022/01/12 08:48:08;;;;;;;11.50;5.68;;;;;;;;;;7379638;19;20010;-73
2022/01/12 08:50:34;;;;;;;12.38;6.43;;;;;;;;;;7381548;19;20464;-72
2022/01/12 08:52:59;;;;;;;12.95;7.20;;;;;;;;;;7381832;19;20252;-72
2022/01/12 08:55:25;;;;;;;10.68;6.35;;;;;;;;;;7381429;19;20344;-72
2022/01/12 08:57:51;;;;;;;10.75;6.22;;;;;;;;;;7378953;19;20011;-72
2022/01/12 09:00:17;;;;;;;12.20;7.03;;;;;;;;;;7378556;19;20582;-73
2022/01/12 09:02:43;;;;;;;12.50;6.20;;;;;;;;;;7379565;19;20030;-72
2022/01/12 09:05:11;;;;;;;10.63;5.53;;;;;;;;;;7378813;19;20018;-73
2022/01/12 09:07:37;;;;;;;13.05;6.95;;;;;;;;;;7376958;19;20328;-74
2022/01/12 09:10:03;;;;;;;15.00;7.75;;;;;;;;;;7376249;19;20508;-74
2022/01/12 09:12:28;;;;;;;14.00;7.57;;;;;;;;;;7378184;19;20440;-74
2022/01/12 09:14:54;;;;;;;16.38;9.02;;;;;;;;;;7375943;19;20023;-73
2022/01/12 09:17:21;;;;;;;13.35;7.00;;;;;;;;;;7377734;19;20472;-74
2022/01/12 09:19:47;;;;;;;13.45;6.53;;;;;;;;;;7378948;19;20030;-73
2022/01/12 09:22:13;;;;;;;13.05;7.05;;;;;;;;;;7379739;19;20015;-73
2022/01/12 09:24:38;;;;;;;11.88;6.40;;;;;;;;;;7378647;19;20010;-74
2022/01/12 09:27:05;;;;;;;13.27;6.47;;;;;;;;;;7376258;19;20010;-74
2022/01/12 09:29:30;;;;;;;12.48;6.30;;;;;;;;;;7375168;19;20007;-73
2022/01/12 09:31:55;;;;;;;14.32;7.15;;;;;;;;;;7378310;19;20430;-74
2022/01/12 09:34:21;;;;;;;10.52;6.05;;;;;;;;;;7380644;19;20011;-74
2022/01/12 09:36:46;;;;;;;14.00;6.72;;;;;;;;;;7380660;19;20062;-71
2022/01/12 09:39:11;;;;;;;12.65;6.78;;;;;;;;;;7375397;19;20027;-73
2022/01/12 09:41:37;;;;;;;13.73;7.35;;;;;;;;;;7375776;19;20500;-76
2022/01/12 09:44:03;;;;;;;14.38;7.65;;;;;;;;;;7378270;19;20471;-75
2022/01/12 09:46:28;;;;;;;12.00;6.65;;;;;;;;;;7379414;19;20041;-74
2022/01/12 09:48:55;;;;;;;12.23;6.40;;;;;;;;;;7375970;19;20206;-75
2022/01/12 09:51:22;;;;;;;12.40;7.43;;;;;;;;;;7379735;19;20803;-75
2022/01/12 09:53:49;;;;;;;10.73;5.95;;;;;;;;;;7377006;19;20013;-75
2022/01/12 09:56:17;;;;;;;12.48;7.45;;;;;;;;;;7378127;19;20006;-74
2022/01/12 09:58:44;;;;;;;11.90;6.45;;;;;;;;;;7370378;19;20398;-73
2022/01/12 10:01:09;;;;;;;15.88;7.78;;;;;;;;;;7376353;19;20021;-73
2022/01/12 10:03:36;;;;;;;17.60;7.32;;;;;;;;;;7372521;19;20062;-75
2022/01/12 10:06:15;;;;;;;15.95;8.27;;;;;;;;;;7374823;19;20448;-76
2022/01/12 10:08:41;;;;;;;13.35;7.07;;;;;;;;;;7370823;19;20035;-75
2022/01/12 10:11:09;;;;;;;14.00;7.22;;;;;;;;;;7375048;19;20014;-74
2022/01/12 10:13:37;;;;;;;14.00;7.05;;;;;;;;;;7377016;19;20011;-75
2022/01/12 10:16:14;;;;;;;14.15;7.47;;;;;;;;;;7375030;19;20001;-73
2022/01/12 10:18:51;;;;;;;13.55;6.63;;;;;;;;;;7372008;19;20010;-73
2022/01/12 10:21:36;;;;;;;12.75;6.28;;;;;;;;;;7373484;19;20479;-74
2022/01/12 10:24:03;;;;;;;9.88;5.65;;;;;;;;;;7375399;19;20027;-74
2022/01/12 10:26:34;;;;;;;15.02;7.30;;;;;;;;;;7373090;19;20157;-74
2022/01/12 10:29:03;;;;;;;13.43;7.38;;;;;;;;;;7372255;19;21202;-73
2022/01/12 10:31:28;;;;;;;11.77;6.78;;;;;;;;;;7375979;19;20025;-75
2022/01/12 10:34:01;;;;;;;11.98;6.60;;;;;;;;;;7368371;19;20109;-75
2022/01/12 10:36:36;;;;;;;11.07;6.75;;;;;;;;;;7369805;19;20010;-75
2022/01/12 10:39:10;;;;;;;14.48;7.18;;;;;;;;;;7369303;19;20011;-75
2022/01/12 10:41:36;;;;;;;15.57;8.18;;;;;;;;;;7372726;19;20350;-76
2022/01/12 10:44:02;;;;;;;12.35;7.20;;;;;;;;;;7376652;19;20006;-75
2022/01/12 10:46:29;;;;;;;14.93;7.43;;;;;;;;;;7376157;19;20326;-73
2022/01/12 10:48:56;;;;;;;13.18;6.97;;;;;;;;;;7375446;19;20380;-76
2022/01/12 10:51:27;;;;;;;14.93;7.78;;;;;;;;;;7375121;19;20437;-74
2022/01/12 10:54:00;;;;;;;17.48;8.13;;;;;;;;;;7375163;19;20007;-74
2022/01/12 10:56:25;;;;;;;15.05;8.38;;;;;;;;;;7377232;19;20599;-74
2022/01/12 10:58:57;;;;;;;17.95;9.32;;;;;;;;;;7376297;19;20453;-74
2022/01/12 11:01:28;;;;;;;13.57;7.78;;;;;;;;;;7375163;19;20010;-73
2022/01/12 11:03:53;;;;;;;13.40;7.68;;;;;;;;;;7377750;19;20021;-75
2022/01/12 11:06:19;;;;;;;15.65;8.00;;;;;;;;;;7374449;19;20037;-74
2022/01/12 11:08:49;;;;;;;18.52;9.63;;;;;;;;;;7373128;19;20018;-74
2022/01/12 11:11:19;;;;;;;16.00;8.98;;;;;;;;;;7375437;19;20014;-74
2022/01/12 11:13:47;;;;;;;17.05;9.13;;;;;;;;;;7374599;19;20078;-74
2022/01/12 11:16:13;;;;;;;14.85;8.70;;;;;;;;;;7376692;19;20026;-75
2022/01/12 11:18:40;;;;;;;14.32;8.85;;;;;;;;;;7376613;19;19999;-74
2022/01/12 11:21:22;;;;;;;14.13;8.02;;;;;;;;;;7375731;19;20014;-74
2022/01/12 11:23:49;;;;;;;15.23;8.23;;;;;;;;;;7377341;19;20041;-74
2022/01/12 11:26:18;;;;;;;13.80;7.72;;;;;;;;;;7373927;19;20080;-74
2022/01/12 11:28:44;;;;;;;16.00;8.45;;;;;;;;;;7369728;19;20010;-74
2022/01/12 11:31:11;;;;;;;14.38;8.00;;;;;;;;;;7377172;19;20566;-77
2022/01/12 11:33:42;;;;;;;14.45;8.05;;;;;;;;;;7376644;19;20027;-74
2022/01/12 11:36:27;;;;;;;16.75;8.40;;;;;;;;;;7375270;19;20404;-72
2022/01/12 11:39:10;;;;;;;14.33;7.47;;;;;;;;;;7376832;19;20174;-74
2022/01/12 11:41:37;;;;;;;14.52;8.48;;;;;;;;;;7373219;19;20429;-72
2022/01/12 11:44:04;;;;;;;17.08;9.07;;;;;;;;;;7376074;19;20138;-72
2022/01/12 11:46:49;;;;;;;17.77;10.02;;;;;;;;;;7374831;19;20007;-73
2022/01/12 11:49:28;;;;;;;13.45;8.30;;;;;;;;;;7375329;19;20006;-72
2022/01/12 11:51:55;;;;;;;14.77;7.97;;;;;;;;;;7375016;19;20478;-73
2022/01/12 11:54:29;;;;;;;15.98;8.32;;;;;;;;;;7377465;19;19995;-73
2022/01/12 11:56:57;;;;;;;18.65;9.45;;;;;;;;;;7382865;19;20018;-74
2022/01/12 11:59:26;;;;;;;13.80;7.60;;;;;;;;;;7380192;19;20451;-72
2022/01/12 12:02:05;;;;;;;16.20;9.18;;;;;;;;;;7382908;19;20006;-72
2022/01/12 12:04:32;;;;;;;13.25;7.45;;;;;;;;;;7382456;19;20492;-74
2022/01/12 12:07:12;;;;;;;13.95;7.88;;;;;;;;;;7384623;19;20018;-74
2022/01/12 12:09:52;;;;;;;15.30;7.95;;;;;;;;;;7378940;19;20021;-74
2022/01/12 12:12:19;;;;;;;12.40;6.85;;;;;;;;;;7384483;19;20010;-74
2022/01/12 12:14:47;;;;;;;12.55;7.00;;;;;;;;;;7378979;19;20007;-73
2022/01/12 12:17:14;;;;;;;15.75;7.28;;;;;;;;;;7378790;19;20330;-76
2022/01/12 12:19:40;;;;;;;16.95;8.13;;;;;;;;;;7378393;19;20514;-75
2022/01/12 12:22:16;;;;;;;14.88;7.55;;;;;;;;;;7381700;19;20015;-75
2022/01/12 12:24:44;;;;;;;14.35;7.85;;;;;;;;;;7384747;19;20003;-74
2022/01/12 12:27:11;;;;;;;21.33;10.45;;;;;;;;;;7383285;19;20028;-73
2022/01/12 12:29:37;;;;;;;21.02;9.32;;;;;;;;;;7382962;19;20031;-75
2022/01/12 12:32:03;;;;;;;18.73;8.95;;;;;;;;;;7384505;19;20078;-77
2022/01/12 12:34:29;;;;;;;18.02;9.13;;;;;;;;;;7384721;19;20006;-76
2022/01/12 12:37:04;;;;;;;17.67;9.80;;;;;;;;;;7383780;19;20381;-73
2022/01/12 12:39:32;;;;;;;17.38;9.52;;;;;;;;;;7380639;19;20078;-74
2022/01/12 12:41:59;;;;;;;16.83;8.70;;;;;;;;;;7381820;19;20162;-73
2022/01/12 12:44:26;;;;;;;14.27;7.90;;;;;;;;;;7383878;19;20110;-75
2022/01/12 12:47:05;;;;;;;17.25;9.15;;;;;;;;;;7379401;19;20069;-73
2022/01/12 12:49:30;;;;;;;15.48;8.65;;;;;;;;;;7382079;19;20015;-74
2022/01/12 12:52:03;;;;;;;15.13;8.75;;;;;;;;;;7383195;19;20013;-73
2022/01/12 12:54:28;;;;;;;14.35;8.13;;;;;;;;;;7380395;19;20022;-75
2022/01/12 12:57:06;;;;;;;16.50;8.65;;;;;;;;;;7380777;19;20018;-76
2022/01/12 12:59:32;;;;;;;13.57;7.57;;;;;;;;;;7383191;19;20031;-74
2022/01/12 13:01:58;;;;;;;12.10;7.82;;;;;;;;;;7382836;19;20441;-72
2022/01/12 13:04:23;;;;;;;11.63;7.32;;;;;;;;;;7382980;19;20018;-74
2022/01/12 13:06:48;;;;;;;13.50;7.55;;;;;;;;;;7376335;19;20340;-73
2022/01/12 13:09:16;;;;;;;11.38;7.05;;;;;;;;;;7379443;19;20122;-75
2022/01/12 13:11:44;;;;;;;13.57;7.63;;;;;;;;;;7381143;19;20010;-75
2022/01/12 13:14:11;;;;;;;16.55;8.52;;;;;;;;;;7380856;19;20487;-73
2022/01/12 13:16:49;;;;;;;13.00;7.35;;;;;;;;;;7383070;19;20070;-73
2022/01/12 13:19:23;;;;;;;16.42;8.32;;;;;;;;;;7378974;19;20018;-72
2022/01/12 13:21:49;;;;;;;14.98;8.18;;;;;;;;;;7379254;19;20339;-73
2022/01/12 13:24:15;;;;;;;15.88;8.18;;;;;;;;;;7378880;19;20424;-73
2022/01/12 13:26:40;;;;;;;13.35;7.75;;;;;;;;;;7376958;19;20006;-72
2022/01/12 13:29:08;;;;;;;13.15;7.65;;;;;;;;;;7370991;19;20358;-72
2022/01/12 13:31:33;;;;;;;14.30;6.97;;;;;;;;;;7368639;19;20479;-73
2022/01/12 13:34:12;;;;;;;16.58;8.23;;;;;;;;;;7371354;19;20014;-73
2022/01/12 13:36:38;;;;;;;14.90;7.68;;;;;;;;;;7374269;19;20014;-73
2022/01/12 13:39:10;;;;;;;15.25;8.13;;;;;;;;;;7372961;19;20026;-71
2022/01/12 13:41:42;;;;;;;15.63;8.88;;;;;;;;;;7371576;19;20373;-70
2022/01/12 13:44:12;;;;;;;18.13;7.63;;;;;;;;;;7374642;19;20017;-74
2022/01/12 13:46:39;;;;;;;12.95;7.25;;;;;;;;;;7374100;19;20010;-72
2022/01/12 13:51:42;;;;;;;13.68;7.68;;;;;;;;;;7372888;19;20006;-70
2022/01/12 13:54:13;;;;;;;13.88;7.32;;;;;;;;;;7375346;19;20013;-72
2022/01/12 13:56:50;;;;;;;15.48;8.13;;;;;;;;;;7373357;19;20492;-75
2022/01/12 13:59:17;;;;;;;12.63;7.35;;;;;;;;;;7371870;19;20014;-73
2022/01/12 14:01:43;;;;;;;16.45;9.82;;;;;;;;;;7372049;19;20030;-72
2022/01/12 14:04:22;;;;;;;13.48;8.10;;;;;;;;;;7374512;19;20018;-71
2022/01/12 14:06:51;;;;;;;12.02;7.10;;;;;;;;;;7372864;19;20026;-70
2022/01/12 14:12:18;;;;;;;12.23;7.13;;;;;;;;;;7369565;19;20034;-74
2022/01/12 14:14:53;;;;;;;15.00;7.93;;;;;;;;;;7374460;19;20432;-73
2022/01/12 14:17:30;;;;;;;13.10;7.70;;;;;;;;;;7367668;19;21705;-74
2022/01/12 14:20:00;;;;;;;16.17;9.10;;;;;;;;;;7370308;19;20010;-73
2022/01/12 14:22:27;;;;;;;17.48;9.32;;;;;;;;;;7370119;19;20500;-74
2022/01/12 14:24:58;;;;;;;14.90;8.60;;;;;;;;;;7371039;19;20015;-73
2022/01/12 14:27:24;;;;;;;13.00;8.23;;;;;;;;;;7364652;19;20517;-75
2022/01/12 14:29:49;;;;;;;14.38;8.57;;;;;;;;;;7365703;19;20093;-73
2022/01/12 14:32:14;;;;;;;16.08;8.52;;;;;;;;;;7370055;19;20102;-75
2022/01/12 14:34:40;;;;;;;15.18;8.55;;;;;;;;;;7370378;19;20040;-73
2022/01/12 14:37:06;;;;;;;15.68;9.07;;;;;;;;;;7371685;19;20031;-73
2022/01/12 14:39:31;;;;;;;12.90;7.82;;;;;;;;;;7368510;19;20487;-73
2022/01/12 14:41:58;;;;;;;12.32;7.50;;;;;;;;;;7372858;19;20370;-72
2022/01/12 14:44:29;;;;;;;16.75;7.82;;;;;;;;;;7367975;19;20530;-73
2022/01/12 14:46:54;;;;;;;15.23;8.55;;;;;;;;;;7369508;19;20460;-72
2022/01/12 14:49:20;;;;;;;12.75;7.78;;;;;;;;;;7368825;19;20007;-73
2022/01/12 14:51:45;;;;;;;13.30;7.55;;;;;;;;;;7370378;19;20512;-72
2022/01/12 14:54:11;;;;;;;14.23;7.20;;;;;;;;;;7371634;19;20006;-73
2022/01/12 14:56:36;;;;;;;13.32;7.15;;;;;;;;;;7368887;19;20017;-72
2022/01/12 14:59:01;;;;;;;13.05;7.05;;;;;;;;;;7372509;19;20038;-73
2022/01/12 15:01:27;;;;;;;13.07;6.72;;;;;;;;;;7369778;19;20007;-72
2022/01/12 15:03:52;;;;;;;15.93;7.95;;;;;;;;;;7377388;19;20324;-71
2022/01/12 15:06:17;;;;;;;13.07;6.90;;;;;;;;;;7379647;19;20018;-71
2022/01/12 15:08:42;;;;;;;15.40;7.75;;;;;;;;;;7374737;19;20010;-72
2022/01/12 15:11:08;;;;;;;13.25;7.57;;;;;;;;;;7376016;19;20073;-72
2022/01/12 15:13:55;;;;;;;17.92;8.60;;;;;;;;;;7376948;19;20006;-73
2022/01/12 15:16:20;;;;;;;11.95;6.70;;;;;;;;;;7377976;19;20032;-72
2022/01/12 15:18:46;;;;;;;12.88;7.03;;;;;;;;;;7375304;19;20461;-72
2022/01/12 15:21:11;;;;;;;11.05;6.72;;;;;;;;;;7377689;19;20121;-73
2022/01/12 15:23:36;;;;;;;11.32;6.75;;;;;;;;;;7375328;19;20129;-72
2022/01/12 15:26:02;;;;;;;10.30;6.10;;;;;;;;;;7379087;19;20038;-72
2022/01/12 15:28:27;;;;;;;13.10;7.68;;;;;;;;;;7373181;19;20016;-72
2022/01/12 15:30:52;;;;;;;14.18;8.13;;;;;;;;;;7379824;19;20026;-72
2022/01/12 15:33:18;;;;;;;15.20;8.02;;;;;;;;;;7382829;19;20006;-73
2022/01/12 15:35:44;;;;;;;15.68;8.02;;;;;;;;;;7385505;19;20011;-72
2022/01/12 15:38:11;;;;;;;16.98;8.18;;;;;;;;;;7383624;19;20515;-73
2022/01/12 15:40:39;;;;;;;13.38;7.63;;;;;;;;;;7384304;19;20014;-73
2022/01/12 15:43:04;;;;;;;10.98;6.68;;;;;;;;;;7384164;19;20432;-73
2022/01/12 15:45:31;;;;;;;11.75;7.18;;;;;;;;;;7383733;19;20015;-71
2022/01/12 15:47:57;;;;;;;12.40;7.05;;;;;;;;;;7382902;19;20017;-72
2022/01/12 15:50:22;;;;;;;14.77;7.68;;;;;;;;;;7385300;19;20010;-72
2022/01/12 15:52:47;;;;;;;11.60;7.20;;;;;;;;;;7381333;19;20027;-72
2022/01/12 15:55:13;;;;;;;13.32;6.50;;;;;;;;;;7384563;19;20023;-71
2022/01/12 15:57:39;;;;;;;13.48;7.25;;;;;;;;;;7383721;19;20014;-71
2022/01/12 16:00:09;;;;;;;12.02;6.90;;;;;;;;;;7378045;19;20470;-71
2022/01/12 16:02:35;;;;;;;14.02;6.32;;;;;;;;;;7383087;19;20015;-71